Time;durP1;ratioP1;P1;durP2;ratioP2;P2;SDS_P1;SDS_P2;PMS_P1;PMS_P2;Temp;Humidity;BMP_temperature;BMP_pressure;BME280_temperature;BME280_humidity;BME280_pressure;Samples;Min_cycle;Max_cycle;Signal;HPM_P1;HPM_P2
2023/06/25 00:01:07;;;;;;;47.75;20.20;;;;;;;;;;6269805;22;20019;-52
2023/06/25 00:03:54;;;;;;;35.63;18.42;;;;;;;;;;6270464;22;20095;-50
2023/06/25 00:06:48;;;;;;;47.05;20.42;;;;;;;;;;6271396;22;20081;-51
2023/06/25 00:09:35;;;;;;;57.05;22.15;;;;;;;;;;6271158;22;20334;-51
2023/06/25 00:12:29;;;;;;;45.90;21.15;;;;;;;;;;6269320;22;20023;-49
2023/06/25 00:15:16;;;;;;;44.45;20.38;;;;;;;;;;6270621;22;20024;-52
2023/06/25 00:18:10;;;;;;;37.90;20.67;;;;;;;;;;6271140;22;20594;-56
2023/06/25 00:20:57;;;;;;;49.70;22.17;;;;;;;;;;6271110;22;20023;-52
2023/06/25 00:23:50;;;;;;;43.55;20.23;;;;;;;;;;6270416;22;20024;-53
2023/06/25 00:26:40;;;;;;;44.22;20.75;;;;;;;;;;6270319;22;20109;-51
2023/06/25 00:29:38;;;;;;;54.92;22.20;;;;;;;;;;6269071;22;20023;-57
2023/06/25 00:32:25;;;;;;;46.88;20.30;;;;;;;;;;6266902;22;20473;-52
2023/06/25 00:35:24;;;;;;;53.22;24.05;;;;;;;;;;6270884;22;20020;-54
2023/06/25 00:38:07;;;;;;;53.35;23.20;;;;;;;;;;6269566;22;20020;-52
2023/06/25 00:41:00;;;;;;;51.75;22.60;;;;;;;;;;6270888;22;20024;-49
2023/06/25 00:43:47;;;;;;;49.03;21.67;;;;;;;;;;6269717;22;20345;-54
2023/06/25 00:46:41;;;;;;;52.33;23.80;;;;;;;;;;6269459;22;20027;-57
2023/06/25 00:49:33;;;;;;;40.22;18.77;;;;;;;;;;6269696;22;20074;-58
2023/06/25 00:52:22;;;;;;;44.17;23.98;;;;;;;;;;6269506;22;20023;-58
2023/06/25 00:55:09;;;;;;;53.33;25.42;;;;;;;;;;6268750;22;20070;-58
2023/06/25 00:58:05;;;;;;;49.03;25.48;;;;;;;;;;6270666;22;20026;-56
2023/06/25 01:00:55;;;;;;;52.47;25.90;;;;;;;;;;6269546;22;20078;-52
2023/06/25 01:03:54;;;;;;;50.03;24.15;;;;;;;;;;6269830;22;20024;-53
2023/06/25 01:06:47;;;;;;;52.08;23.83;;;;;;;;;;6270269;22;20020;-55
2023/06/25 01:09:37;;;;;;;41.35;20.48;;;;;;;;;;6269510;22;20020;-56
2023/06/25 01:12:24;;;;;;;46.30;21.73;;;;;;;;;;6269826;22;20023;-53
2023/06/25 01:15:17;;;;;;;42.50;22.55;;;;;;;;;;6271480;22;20380;-54
2023/06/25 01:18:05;;;;;;;50.78;24.45;;;;;;;;;;6269317;22;20526;-53
2023/06/25 01:20:59;;;;;;;46.65;23.52;;;;;;;;;;6271820;22;20111;-55
2023/06/25 01:23:46;;;;;;;53.75;24.58;;;;;;;;;;6270104;22;20016;-51
2023/06/25 01:26:39;;;;;;;36.50;20.70;;;;;;;;;;6269596;22;20016;-52
2023/06/25 01:29:40;;;;;;;43.50;22.08;;;;;;;;;;6269745;22;20024;-56
2023/06/25 01:32:27;;;;;;;46.53;22.52;;;;;;;;;;6269238;22;20019;-57
2023/06/25 01:35:21;;;;;;;43.28;25.48;;;;;;;;;;6271039;22;20024;-53
2023/06/25 01:38:09;;;;;;;37.03;20.85;;;;;;;;;;6269594;22;20093;-51
2023/06/25 01:41:02;;;;;;;38.35;22.25;;;;;;;;;;6269576;22;20046;-55
2023/06/25 01:43:50;;;;;;;45.45;24.27;;;;;;;;;;6268778;22;20073;-54
2023/06/25 01:46:47;;;;;;;44.13;23.83;;;;;;;;;;6268812;22;20082;-53
2023/06/25 01:49:34;;;;;;;51.90;26.05;;;;;;;;;;6267300;22;20048;-52
2023/06/25 01:52:27;;;;;;;48.00;24.02;;;;;;;;;;6269581;22;20030;-55
2023/06/25 01:55:15;;;;;;;41.60;22.88;;;;;;;;;;6268052;22;20019;-62
2023/06/25 01:58:08;;;;;;;46.17;22.20;;;;;;;;;;6269400;22;20024;-52
2023/06/25 02:00:56;;;;;;;33.00;20.80;;;;;;;;;;6267629;22;20481;-49
2023/06/25 02:03:50;;;;;;;41.92;24.42;;;;;;;;;;6270320;22;20055;-50
2023/06/25 02:06:37;;;;;;;44.88;25.02;;;;;;;;;;6269935;22;20077;-50
2023/06/25 02:09:30;;;;;;;55.40;25.40;;;;;;;;;;6270233;22;20050;-51
2023/06/25 02:12:18;;;;;;;52.38;26.75;;;;;;;;;;6271233;22;20081;-53
2023/06/25 02:15:12;;;;;;;44.47;23.75;;;;;;;;;;6269424;22;20020;-53
2023/06/25 02:17:59;;;;;;;37.60;23.30;;;;;;;;;;6269856;22;20020;-53
2023/06/25 02:20:52;;;;;;;54.15;25.83;;;;;;;;;;6270114;22;20027;-48
2023/06/25 02:23:40;;;;;;;49.28;25.17;;;;;;;;;;6268740;22;20085;-58
2023/06/25 02:26:40;;;;;;;55.42;27.60;;;;;;;;;;6270016;22;20023;-53
2023/06/25 02:29:34;;;;;;;49.70;26.38;;;;;;;;;;6269836;22;20028;-55
2023/06/25 02:32:27;;;;;;;53.30;26.27;;;;;;;;;;6268202;22;20097;-52
2023/06/25 02:35:15;;;;;;;57.95;26.90;;;;;;;;;;6269285;22;20020;-54
2023/06/25 02:38:08;;;;;;;49.55;26.55;;;;;;;;;;6269390;22;20027;-55
2023/06/25 02:40:56;;;;;;;53.08;26.27;;;;;;;;;;6269928;22;20019;-55
2023/06/25 02:43:49;;;;;;;50.20;28.38;;;;;;;;;;6269946;22;20023;-54
2023/06/25 02:46:37;;;;;;;51.33;27.45;;;;;;;;;;6266462;22;20024;-54
2023/06/25 02:49:31;;;;;;;51.03;27.67;;;;;;;;;;6268525;22;20024;-58
2023/06/25 02:52:18;;;;;;;52.95;27.40;;;;;;;;;;6268778;22;20015;-54
2023/06/25 02:55:12;;;;;;;51.88;28.52;;;;;;;;;;6269480;22;20016;-53
2023/06/25 02:57:59;;;;;;;44.15;25.85;;;;;;;;;;6269062;22;20027;-56
2023/06/25 03:00:52;;;;;;;38.65;23.05;;;;;;;;;;6267778;22;20028;-54
2023/06/25 03:03:40;;;;;;;39.00;23.20;;;;;;;;;;6269085;22;20019;-54
2023/06/25 03:06:34;;;;;;;40.88;23.27;;;;;;;;;;6268787;22;20024;-54
2023/06/25 03:09:21;;;;;;;32.90;21.05;;;;;;;;;;6269831;22;20031;-47
2023/06/25 03:12:14;;;;;;;41.63;21.20;;;;;;;;;;6269530;22;20097;-52
2023/06/25 03:15:02;;;;;;;30.60;17.48;;;;;;;;;;6268321;22;20078;-48
2023/06/25 03:17:56;;;;;;;26.70;15.55;;;;;;;;;;6270304;22;20023;-50
2023/06/25 03:20:43;;;;;;;22.08;15.40;;;;;;;;;;6271807;22;20031;-50
2023/06/25 03:23:36;;;;;;;26.30;17.25;;;;;;;;;;6271685;22;20015;-52
2023/06/25 03:26:24;;;;;;;20.33;13.48;;;;;;;;;;6271400;22;20399;-53
2023/06/25 03:29:24;;;;;;;19.70;13.23;;;;;;;;;;6270642;22;20758;-53
2023/06/25 03:32:11;;;;;;;18.23;13.30;;;;;;;;;;6271066;22;20024;-51
2023/06/25 03:35:06;;;;;;;20.13;14.25;;;;;;;;;;6270825;22;20115;-54
2023/06/25 03:37:53;;;;;;;20.00;13.52;;;;;;;;;;6271562;22;20389;-50
2023/06/25 03:40:47;;;;;;;17.58;13.20;;;;;;;;;;6271737;22;20020;-51
2023/06/25 03:43:34;;;;;;;22.30;15.93;;;;;;;;;;6269003;22;20020;-54
2023/06/25 03:46:28;;;;;;;23.83;15.43;;;;;;;;;;6269966;22;20023;-50
2023/06/25 03:49:15;;;;;;;17.33;14.20;;;;;;;;;;6270030;22;20020;-56
2023/06/25 03:52:09;;;;;;;18.85;14.45;;;;;;;;;;6270317;22;20020;-57
2023/06/25 03:54:56;;;;;;;21.20;14.15;;;;;;;;;;6272078;22;20412;-56
2023/06/25 03:57:50;;;;;;;24.00;15.75;;;;;;;;;;6270497;22;20302;-57
2023/06/25 04:00:37;;;;;;;19.42;13.60;;;;;;;;;;6269786;22;20073;-55
2023/06/25 04:03:31;;;;;;;12.32;10.75;;;;;;;;;;6271388;22;20050;-61
2023/06/25 04:06:18;;;;;;;13.48;10.82;;;;;;;;;;6271654;22;20238;-55
2023/06/25 04:09:12;;;;;;;13.85;10.70;;;;;;;;;;6270252;22;20038;-51
2023/06/25 04:12:06;;;;;;;14.65;10.15;;;;;;;;;;6270932;22;20534;-52
2023/06/25 04:14:54;;;;;;;13.25;10.60;;;;;;;;;;6269274;22;20099;-56
2023/06/25 04:17:47;;;;;;;14.13;10.70;;;;;;;;;;6271212;22;20105;-53
2023/06/25 04:20:34;;;;;;;11.52;9.10;;;;;;;;;;6270503;22;20023;-54
2023/06/25 04:23:27;;;;;;;11.75;9.13;;;;;;;;;;6270216;22;20088;-48
2023/06/25 04:26:15;;;;;;;13.55;10.93;;;;;;;;;;6269976;22;20534;-52
2023/06/25 04:29:15;;;;;;;13.98;11.10;;;;;;;;;;6270340;22;20050;-51
2023/06/25 04:32:03;;;;;;;14.15;10.73;;;;;;;;;;6269075;22;20026;-49
2023/06/25 04:34:58;;;;;;;14.23;12.05;;;;;;;;;;6270618;22;20022;-56
2023/06/25 04:37:46;;;;;;;16.02;12.35;;;;;;;;;;6269914;22;20473;-52
2023/06/25 04:40:40;;;;;;;17.25;12.68;;;;;;;;;;6270049;22;20019;-53
2023/06/25 04:43:28;;;;;;;18.40;13.67;;;;;;;;;;6267824;22;20024;-61
2023/06/25 04:46:21;;;;;;;20.23;13.75;;;;;;;;;;6270453;22;20292;-52
2023/06/25 04:49:10;;;;;;;20.60;13.50;;;;;;;;;;6268169;22;20023;-56
2023/06/25 04:52:04;;;;;;;19.73;14.32;;;;;;;;;;6269062;22;20464;-53
2023/06/25 04:54:51;;;;;;;18.58;13.70;;;;;;;;;;6271208;22;20016;-56
2023/06/25 04:57:45;;;;;;;18.02;13.73;;;;;;;;;;6270977;22;20070;-55
2023/06/25 05:00:32;;;;;;;21.20;15.55;;;;;;;;;;6270895;22;20019;-53
2023/06/25 05:03:33;;;;;;;22.70;15.95;;;;;;;;;;6268138;22;20020;-55
2023/06/25 05:06:20;;;;;;;20.42;14.43;;;;;;;;;;6270685;22;20016;-56
2023/06/25 05:09:15;;;;;;;20.92;14.95;;;;;;;;;;6268887;22;20027;-55
2023/06/25 05:12:03;;;;;;;19.88;14.73;;;;;;;;;;6270952;22;20078;-53
2023/06/25 05:14:55;;;;;;;16.17;12.00;;;;;;;;;;6270724;22;20020;-54
2023/06/25 05:17:50;;;;;;;14.73;11.18;;;;;;;;;;6270358;22;20023;-52
2023/06/25 05:20:44;;;;;;;18.52;13.27;;;;;;;;;;6269110;22;20051;-56
2023/06/25 05:23:38;;;;;;;19.40;13.57;;;;;;;;;;6270418;22;20023;-53
2023/06/25 05:26:30;;;;;;;20.92;13.30;;;;;;;;;;6269851;22;20027;-55
2023/06/25 05:29:24;;;;;;;19.05;13.23;;;;;;;;;;6268572;22;20339;-53
2023/06/25 05:32:25;;;;;;;17.05;12.30;;;;;;;;;;6268739;22;20023;-52
2023/06/25 05:35:13;;;;;;;21.45;13.18;;;;;;;;;;6270011;22;20027;-49
2023/06/25 05:38:07;;;;;;;22.67;13.18;;;;;;;;;;6270283;22;20070;-53
2023/06/25 05:40:54;;;;;;;18.98;11.68;;;;;;;;;;6267618;22;20024;-57
2023/06/25 05:43:48;;;;;;;18.48;11.57;;;;;;;;;;6268379;22;20024;-51
2023/06/25 05:46:35;;;;;;;19.13;11.48;;;;;;;;;;6269225;22;20024;-53
2023/06/25 05:49:29;;;;;;;16.92;10.98;;;;;;;;;;6267704;22;20393;-50
2023/06/25 05:52:16;;;;;;;17.95;10.88;;;;;;;;;;6268749;22;20461;-53
2023/06/25 05:55:10;;;;;;;16.55;10.82;;;;;;;;;;6267668;22;20469;-53
2023/06/25 05:57:57;;;;;;;16.17;10.23;;;;;;;;;;6270200;22;20074;-52
2023/06/25 06:00:50;;;;;;;14.70;10.40;;;;;;;;;;6269315;22;20046;-53
2023/06/25 06:03:38;;;;;;;12.90;9.80;;;;;;;;;;6269016;22;20462;-50
2023/06/25 06:06:32;;;;;;;13.57;9.27;;;;;;;;;;6269974;22;20043;-50
2023/06/25 06:09:19;;;;;;;13.43;9.52;;;;;;;;;;6268669;22;20028;-61
2023/06/25 06:12:13;;;;;;;12.30;9.57;;;;;;;;;;6269201;22;20841;-56
2023/06/25 06:15:00;;;;;;;14.88;10.15;;;;;;;;;;6260417;22;20020;-55
2023/06/25 06:17:53;;;;;;;14.13;10.23;;;;;;;;;;6269514;22;20081;-51
2023/06/25 06:20:41;;;;;;;14.55;10.30;;;;;;;;;;6267505;22;20085;-51
2023/06/25 06:23:34;;;;;;;15.02;9.85;;;;;;;;;;6269369;22;20600;-53
2023/06/25 06:26:22;;;;;;;13.75;10.05;;;;;;;;;;6270092;22;20477;-52
2023/06/25 06:29:22;;;;;;;15.70;10.07;;;;;;;;;;6269978;22;20031;-47
2023/06/25 06:32:10;;;;;;;17.15;9.20;;;;;;;;;;6268879;22;20020;-53
2023/06/25 06:35:04;;;;;;;13.80;9.77;;;;;;;;;;6269604;22;20102;-49
2023/06/25 06:37:51;;;;;;;12.88;9.10;;;;;;;;;;6269863;22;20024;-65
2023/06/25 06:40:45;;;;;;;17.23;10.07;;;;;;;;;;6269585;22;20027;-53
2023/06/25 06:43:33;;;;;;;12.10;8.63;;;;;;;;;;6269125;22;20081;-54
2023/06/25 06:46:26;;;;;;;11.57;8.55;;;;;;;;;;6266374;22;20024;-54
2023/06/25 06:49:16;;;;;;;13.93;8.77;;;;;;;;;;6267177;22;20032;-57
2023/06/25 06:52:08;;;;;;;11.52;7.95;;;;;;;;;;6268540;22;20020;-52
2023/06/25 06:54:57;;;;;;;15.05;8.35;;;;;;;;;;6267093;22;20020;-48
2023/06/25 06:57:30;;;;;;;10.50;8.60;;;;;;;;;;6267301;22;20024;-63
2023/06/25 06:59:58;;;;;;;11.68;8.00;;;;;;;;;;6267682;22;20034;-50
2023/06/25 07:02:55;;;;;;;11.68;7.68;;;;;;;;;;6267388;22;20315;-50
2023/06/25 07:05:39;;;;;;;12.75;7.90;;;;;;;;;;6267570;22;20342;-54
2023/06/25 07:08:32;;;;;;;10.80;7.88;;;;;;;;;;6267651;22;20469;-49
2023/06/25 07:11:20;;;;;;;10.98;8.00;;;;;;;;;;6267175;22;20024;-49
2023/06/25 07:14:14;;;;;;;9.90;6.90;;;;;;;;;;6266799;22;20086;-51
2023/06/25 07:17:01;;;;;;;10.38;7.47;;;;;;;;;;6268947;22;20027;-53
2023/06/25 07:19:55;;;;;;;11.02;7.32;;;;;;;;;;6267481;22;20053;-55
2023/06/25 07:22:43;;;;;;;13.15;7.90;;;;;;;;;;6266300;22;20420;-52
2023/06/25 07:25:36;;;;;;;11.15;7.65;;;;;;;;;;6264741;22;20024;-53
2023/06/25 07:28:29;;;;;;;11.63;7.85;;;;;;;;;;6267193;22;20020;-52
2023/06/25 07:31:23;;;;;;;10.52;7.47;;;;;;;;;;6268673;22;20024;-50
2023/06/25 07:34:11;;;;;;;10.02;7.70;;;;;;;;;;6264305;22;20019;-68
2023/06/25 07:37:05;;;;;;;13.00;7.13;;;;;;;;;;6265204;22;20024;-47
2023/06/25 07:39:52;;;;;;;9.57;6.90;;;;;;;;;;6265969;22;20050;-51
2023/06/25 07:42:46;;;;;;;9.05;6.88;;;;;;;;;;6264643;22;20020;-52
2023/06/25 07:45:33;;;;;;;47.40;8.32;;;;;;;;;;6265145;22;20073;-48
2023/06/25 07:48:27;;;;;;;17.50;7.30;;;;;;;;;;6265435;22;20062;-50
2023/06/25 07:51:14;;;;;;;9.80;7.10;;;;;;;;;;6265280;22;20027;-50
2023/06/25 07:54:09;;;;;;;11.30;6.88;;;;;;;;;;6266329;22;20022;-51
2023/06/25 07:56:56;;;;;;;10.70;6.60;;;;;;;;;;6265561;22;20082;-53
2023/06/25 07:59:53;;;;;;;10.48;6.47;;;;;;;;;;6247526;22;20057;-49
2023/06/25 08:02:39;;;;;;;11.60;6.60;;;;;;;;;;6267386;22;20071;-57
2023/06/25 08:05:33;;;;;;;9.07;6.88;;;;;;;;;;6269574;22;20024;-52
2023/06/25 08:08:21;;;;;;;10.15;6.70;;;;;;;;;;6269712;22;20027;-57
2023/06/25 08:11:14;;;;;;;10.77;6.68;;;;;;;;;;6263746;22;20073;-51
2023/06/25 08:14:08;;;;;;;8.50;5.82;;;;;;;;;;6255532;22;20027;-58
2023/06/25 08:16:42;;;;;;;9.55;6.53;;;;;;;;;;6269288;22;20077;-58
2023/06/25 08:19:09;;;;;;;8.10;6.50;;;;;;;;;;6267748;22;20197;-58
2023/06/25 08:21:36;;;;;;;9.25;6.80;;;;;;;;;;6269968;22;20024;-57
2023/06/25 08:24:10;;;;;;;7.70;6.50;;;;;;;;;;6269825;22;20020;-58
2023/06/25 08:26:57;;;;;;;7.97;5.85;;;;;;;;;;6269471;22;20023;-58
2023/06/25 08:29:52;;;;;;;7.22;6.35;;;;;;;;;;6269909;22;20024;-57
2023/06/25 08:32:39;;;;;;;;;;;;;;;;;;6268980;22;20019;-58
2023/06/25 08:35:33;;;;;;;8.60;5.70;;;;;;;;;;6266143;22;20340;-58
2023/06/25 08:38:21;;;;;;;8.20;5.93;;;;;;;;;;6268239;22;20019;-58
2023/06/25 08:41:14;;;;;;;8.32;5.75;;;;;;;;;;6265409;22;20069;-58
2023/06/25 08:44:01;;;;;;;9.18;6.05;;;;;;;;;;6269407;22;20024;-59
2023/06/25 08:46:55;;;;;;;8.88;6.00;;;;;;;;;;6268185;22;20384;-58
2023/06/25 08:49:43;;;;;;;8.57;5.97;;;;;;;;;;6268551;22;20049;-58
2023/06/25 08:52:38;;;;;;;8.10;5.75;;;;;;;;;;6269321;22;20031;-58
2023/06/25 08:55:25;;;;;;;8.07;5.68;;;;;;;;;;6267172;22;20061;-58
2023/06/25 08:58:21;;;;;;;8.88;6.15;;;;;;;;;;6266785;22;20046;-57
2023/06/25 09:01:06;;;;;;;12.18;6.18;;;;;;;;;;6265284;22;20039;-58
2023/06/25 09:04:00;;;;;;;7.50;5.45;;;;;;;;;;6265561;22;20023;-60
2023/06/25 09:06:49;;;;;;;9.85;5.80;;;;;;;;;;6268890;22;20046;-62
2023/06/25 09:09:43;;;;;;;7.15;5.50;;;;;;;;;;6266605;22;20024;-60
2023/06/25 09:12:31;;;;;;;7.47;5.37;;;;;;;;;;6269701;22;20051;-60
2023/06/25 09:15:31;;;;;;;8.10;5.05;;;;;;;;;;6266186;22;20254;-60
2023/06/25 09:18:25;;;;;;;6.15;4.63;;;;;;;;;;6268472;22;20085;-60
2023/06/25 09:21:19;;;;;;;6.88;4.93;;;;;;;;;;6268304;22;20031;-60
2023/06/25 09:24:20;;;;;;;7.78;5.00;;;;;;;;;;6266363;22;20035;-60
2023/06/25 09:27:14;;;;;;;6.55;5.05;;;;;;;;;;6269067;22;20073;-60
2023/06/25 09:30:11;;;;;;;6.10;4.80;;;;;;;;;;6268942;22;20510;-60
2023/06/25 09:33:05;;;;;;;5.57;4.60;;;;;;;;;;6269337;22;20094;-60
2023/06/25 09:35:58;;;;;;;7.30;4.88;;;;;;;;;;6266850;22;20360;-60
2023/06/25 09:39:05;;;;;;;5.72;5.10;;;;;;;;;;6266326;22;20030;-60
2023/06/25 09:41:53;;;;;;;6.03;5.10;;;;;;;;;;6268498;22;20078;-59
2023/06/25 09:44:47;;;;;;;8.27;5.18;;;;;;;;;;6268778;22;20395;-60
2023/06/25 09:47:35;;;;;;;8.45;4.95;;;;;;;;;;6268538;22;20019;-60
2023/06/25 09:50:29;;;;;;;9.73;5.10;;;;;;;;;;6268535;22;20020;-59
2023/06/25 09:53:18;;;;;;;7.70;4.95;;;;;;;;;;6267173;22;20081;-59
2023/06/25 09:56:13;;;;;;;7.55;4.97;;;;;;;;;;6268236;22;20015;-59
2023/06/25 09:59:07;;;;;;;7.93;4.70;;;;;;;;;;6268668;22;20023;-60
2023/06/25 10:01:54;;;;;;;4.82;4.13;;;;;;;;;;6268480;22;20019;-60
2023/06/25 10:04:49;;;;;;;6.82;4.95;;;;;;;;;;6268412;22;20020;-60
2023/06/25 10:07:43;;;;;;;5.68;4.32;;;;;;;;;;6267617;22;20062;-60
2023/06/25 10:10:31;;;;;;;5.80;4.40;;;;;;;;;;6269467;22;20078;-60
2023/06/25 10:13:31;;;;;;;5.88;4.22;;;;;;;;;;6266602;22;20103;-60
2023/06/25 10:16:30;;;;;;;6.38;5.10;;;;;;;;;;6234330;23;20434;-60
2023/06/25 10:19:25;;;;;;;6.85;5.03;;;;;;;;;;6238470;23;20039;-60
2023/06/25 10:22:13;;;;;;;6.68;4.57;;;;;;;;;;6237513;23;20024;-58
2023/06/25 10:25:06;;;;;;;6.72;4.68;;;;;;;;;;6236671;23;20397;-58
2023/06/25 10:28:01;;;;;;;8.98;5.10;;;;;;;;;;6237621;23;20052;-58
2023/06/25 10:30:55;;;;;;;9.60;4.38;;;;;;;;;;6237793;23;20596;-58
2023/06/25 10:33:43;;;;;;;5.43;4.53;;;;;;;;;;6238762;23;20063;-58
2023/06/25 10:36:37;;;;;;;7.20;4.57;;;;;;;;;;6237635;23;20078;-58
2023/06/25 10:39:24;;;;;;;7.60;4.72;;;;;;;;;;6237395;23;20032;-58
2023/06/25 10:42:18;;;;;;;6.25;4.68;;;;;;;;;;6236584;23;20354;-58
2023/06/25 10:45:05;;;;;;;6.80;4.38;;;;;;;;;;6238440;23;20028;-58
2023/06/25 10:48:03;;;;;;;5.53;4.45;;;;;;;;;;6237238;23;20020;-58
2023/06/25 10:50:51;;;;;;;5.35;4.28;;;;;;;;;;6237223;23;20039;-57
2023/06/25 10:53:44;;;;;;;5.82;4.50;;;;;;;;;;6237880;23;20440;-58
2023/06/25 10:56:33;;;;;;;7.57;4.85;;;;;;;;;;6238685;23;20024;-58
2023/06/25 10:59:27;;;;;;;5.45;4.25;;;;;;;;;;6237049;23;20032;-57
2023/06/25 11:02:16;;;;;;;6.57;4.60;;;;;;;;;;6236128;23;20074;-57
2023/06/25 11:05:11;;;;;;;6.18;4.80;;;;;;;;;;6236887;23;20469;-58
2023/06/25 11:07:57;;;;;;;7.70;4.80;;;;;;;;;;6236940;23;20086;-58
2023/06/25 11:10:51;;;;;;;6.40;4.97;;;;;;;;;;6236868;23;20408;-58
2023/06/25 11:13:38;;;;;;;5.93;4.22;;;;;;;;;;6239439;22;20579;-58
2023/06/25 11:16:38;;;;;;;8.98;4.20;;;;;;;;;;6267862;22;20341;-57
2023/06/25 11:19:26;;;;;;;6.22;4.65;;;;;;;;;;6267373;22;20019;-58
2023/06/25 11:22:20;;;;;;;5.22;4.38;;;;;;;;;;6267137;22;20024;-58
2023/06/25 11:25:07;;;;;;;5.25;4.28;;;;;;;;;;6268064;22;20396;-58
2023/06/25 11:28:14;;;;;;;10.07;4.40;;;;;;;;;;6266710;22;20058;-58
2023/06/25 11:31:01;;;;;;;6.55;4.53;;;;;;;;;;6268002;22;20019;-58
2023/06/25 11:33:55;;;;;;;5.78;4.57;;;;;;;;;;6269586;22;20373;-58
2023/06/25 11:36:44;;;;;;;6.38;4.70;;;;;;;;;;6268156;22;20078;-58
2023/06/25 11:39:46;;;;;;;5.70;4.22;;;;;;;;;;6269389;22;20024;-59
2023/06/25 11:42:39;;;;;;;5.63;4.07;;;;;;;;;;6269469;22;20075;-58
2023/06/25 11:45:41;;;;;;;5.72;4.13;;;;;;;;;;6270463;22;20073;-58
2023/06/25 11:48:29;;;;;;;8.43;4.25;;;;;;;;;;6270128;22;20337;-58
2023/06/25 11:51:22;;;;;;;6.60;4.97;;;;;;;;;;6270089;22;20077;-58
2023/06/25 11:54:09;;;;;;;6.50;4.80;;;;;;;;;;6268952;22;20362;-58
2023/06/25 11:57:03;;;;;;;5.05;4.35;;;;;;;;;;6269588;22;20655;-58
2023/06/25 11:59:50;;;;;;;4.88;4.10;;;;;;;;;;6269861;22;20020;-58
2023/06/25 12:02:44;;;;;;;7.97;4.40;;;;;;;;;;6271222;22;20073;-58
2023/06/25 12:05:31;;;;;;;6.28;4.20;;;;;;;;;;6268303;22;20038;-58
2023/06/25 12:08:26;;;;;;;6.72;4.40;;;;;;;;;;6269469;22;20023;-60
2023/06/25 12:11:13;;;;;;;11.20;4.65;;;;;;;;;;6268435;22;20024;-58
2023/06/25 12:14:21;;;;;;;4.82;4.25;;;;;;;;;;6268645;22;20085;-58
2023/06/25 12:17:15;;;;;;;4.88;3.95;;;;;;;;;;6270167;22;20023;-58
2023/06/25 12:20:09;;;;;;;6.50;3.88;;;;;;;;;;6263898;22;20468;-58
2023/06/25 12:22:56;;;;;;;4.55;4.10;;;;;;;;;;6265913;22;20023;-58
2023/06/25 12:25:50;;;;;;;4.28;3.88;;;;;;;;;;6267951;22;20066;-58
2023/06/25 12:28:37;;;;;;;6.18;4.35;;;;;;;;;;6269327;22;20074;-58
2023/06/25 12:31:31;;;;;;;4.25;3.75;;;;;;;;;;6269072;22;20028;-58
2023/06/25 12:34:18;;;;;;;9.98;4.25;;;;;;;;;;6268516;22;20077;-59
2023/06/25 12:37:12;;;;;;;5.35;4.18;;;;;;;;;;6268178;22;20027;-59
2023/06/25 12:39:59;;;;;;;6.63;3.95;;;;;;;;;;6269592;22;20396;-59
2023/06/25 12:42:55;;;;;;;5.25;4.22;;;;;;;;;;6269488;22;20019;-59
2023/06/25 12:45:41;;;;;;;5.95;3.90;;;;;;;;;;6266161;22;20020;-60
2023/06/25 12:48:34;;;;;;;7.40;4.07;;;;;;;;;;6266389;22;20099;-60
2023/06/25 12:51:21;;;;;;;4.72;4.07;;;;;;;;;;6267365;22;20024;-59
2023/06/25 12:54:18;;;;;;;5.32;4.03;;;;;;;;;;6266912;22;20028;-58
2023/06/25 12:57:05;;;;;;;4.95;4.03;;;;;;;;;;6263567;22;20456;-59
2023/06/25 12:59:59;;;;;;;6.80;3.88;;;;;;;;;;6268308;22;20077;-59
2023/06/25 13:03:12;;;;;;;4.28;3.78;;;;;;;;;;6269884;22;20024;-59
2023/06/25 13:06:06;;;;;;;4.20;3.53;;;;;;;;;;6267446;22;20020;-60
2023/06/25 13:08:53;;;;;;;4.97;4.27;;;;;;;;;;6268457;22;20854;-59
2023/06/25 13:11:47;;;;;;;5.43;3.58;;;;;;;;;;6269416;22;20576;-59
2023/06/25 13:14:42;;;;;;;3.97;3.58;;;;;;;;;;6266995;22;20100;-59
2023/06/25 13:17:34;;;;;;;4.57;3.53;;;;;;;;;;6267146;22;20019;-59
2023/06/25 13:20:21;;;;;;;5.97;3.95;;;;;;;;;;6268590;22;20031;-59
2023/06/25 13:23:15;;;;;;;5.40;3.97;;;;;;;;;;6269329;22;20034;-59
2023/06/25 13:26:09;;;;;;;4.85;3.67;;;;;;;;;;6268431;22;20020;-60
2023/06/25 13:29:03;;;;;;;6.30;4.15;;;;;;;;;;6268423;22;20024;-60
2023/06/25 13:31:50;;;;;;;5.20;3.77;;;;;;;;;;6268991;22;20019;-60
2023/06/25 13:34:44;;;;;;;4.22;3.83;;;;;;;;;;6270172;22;20077;-59
2023/06/25 13:37:31;;;;;;;5.32;3.80;;;;;;;;;;6267906;22;20024;-59
2023/06/25 13:40:25;;;;;;;7.65;3.75;;;;;;;;;;6268416;22;20085;-59
2023/06/25 13:43:12;;;;;;;3.65;3.15;;;;;;;;;;6267534;22;20023;-60
2023/06/25 13:46:06;;;;;;;3.30;3.00;;;;;;;;;;6267930;22;20024;-59
2023/06/25 13:48:53;;;;;;;4.43;3.72;;;;;;;;;;6266800;22;20565;-60
2023/06/25 13:51:47;;;;;;;4.82;3.95;;;;;;;;;;6267570;22;20053;-60
2023/06/25 13:54:41;;;;;;;6.57;3.20;;;;;;;;;;6268069;22;20031;-60
2023/06/25 13:57:28;;;;;;;4.03;3.40;;;;;;;;;;6266774;22;20034;-59
2023/06/25 14:00:22;;;;;;;4.03;3.63;;;;;;;;;;6266483;22;20070;-59
2023/06/25 14:03:10;;;;;;;4.88;3.50;;;;;;;;;;6267764;22;20019;-59
2023/06/25 14:06:03;;;;;;;4.25;3.40;;;;;;;;;;6267288;22;20883;-59
2023/06/25 14:08:50;;;;;;;4.00;3.60;;;;;;;;;;6269160;22;20142;-60
2023/06/25 14:11:44;;;;;;;5.15;3.50;;;;;;;;;;6266747;22;20093;-60
2023/06/25 14:14:45;;;;;;;3.50;3.20;;;;;;;;;;6268546;22;20097;-59
2023/06/25 14:17:32;;;;;;;3.78;3.38;;;;;;;;;;6271151;22;20028;-60
2023/06/25 14:20:26;;;;;;;3.67;3.30;;;;;;;;;;6269828;22;20095;-59
2023/06/25 14:23:15;;;;;;;5.47;3.90;;;;;;;;;;6269281;22;20028;-60
2023/06/25 14:26:07;;;;;;;5.28;3.50;;;;;;;;;;6269558;22;20020;-60
2023/06/25 14:28:54;;;;;;;7.00;3.70;;;;;;;;;;6269833;22;20066;-60
2023/06/25 14:31:48;;;;;;;6.63;3.67;;;;;;;;;;6271207;22;20028;-60
2023/06/25 14:34:35;;;;;;;5.03;3.95;;;;;;;;;;6268811;22;20379;-60
2023/06/25 14:37:29;;;;;;;6.43;3.35;;;;;;;;;;6269929;22;20034;-59
2023/06/25 14:40:16;;;;;;;3.92;3.53;;;;;;;;;;6267152;22;20020;-60
2023/06/25 14:43:10;;;;;;;6.63;3.85;;;;;;;;;;6268610;22;20020;-59
2023/06/25 14:45:57;;;;;;;4.65;3.35;;;;;;;;;;6269139;22;20089;-60
2023/06/25 14:48:51;;;;;;;3.83;3.42;;;;;;;;;;6270279;22;20086;-60
2023/06/25 14:51:45;;;;;;;4.75;3.65;;;;;;;;;;6268252;22;20492;-59
2023/06/25 14:54:39;;;;;;;9.27;3.88;;;;;;;;;;6269659;22;20695;-59
2023/06/25 14:57:26;;;;;;;3.93;3.53;;;;;;;;;;6266262;22;20388;-61
2023/06/25 15:00:20;;;;;;;4.72;3.60;;;;;;;;;;6268767;22;20385;-60
2023/06/25 15:03:07;;;;;;;3.50;3.20;;;;;;;;;;6266320;22;20020;-60
2023/06/25 15:06:01;;;;;;;4.15;3.65;;;;;;;;;;6267941;22;20747;-60
2023/06/25 15:09:02;;;;;;;5.88;3.53;;;;;;;;;;6268955;22;20019;-60
2023/06/25 15:11:56;;;;;;;7.22;3.70;;;;;;;;;;6266965;22;20081;-60
2023/06/25 15:14:49;;;;;;;7.20;3.88;;;;;;;;;;6269291;22;20500;-60
2023/06/25 15:17:50;;;;;;;5.50;3.30;;;;;;;;;;6270197;22;20016;-60
2023/06/25 15:20:37;;;;;;;4.32;3.45;;;;;;;;;;6268783;22;20024;-61
2023/06/25 15:23:31;;;;;;;4.97;2.97;;;;;;;;;;6271114;22;20085;-61
2023/06/25 15:26:18;;;;;;;6.33;3.47;;;;;;;;;;6267977;22;20085;-62
2023/06/25 15:29:33;;;;;;;7.78;3.53;;;;;;;;;;6270575;22;20472;-61
2023/06/25 15:32:27;;;;;;;6.28;3.47;;;;;;;;;;6269745;22;20038;-61
2023/06/25 15:35:21;;;;;;;4.13;3.45;;;;;;;;;;6270941;22;20020;-62
2023/06/25 15:38:10;;;;;;;3.30;2.97;;;;;;;;;;6267999;22;20035;-61
2023/06/25 15:41:04;;;;;;;4.28;3.33;;;;;;;;;;6268830;22;20468;-61
2023/06/25 15:43:57;;;;;;;5.55;3.20;;;;;;;;;;6270943;22;20024;-60
2023/06/25 15:46:51;;;;;;;4.15;3.40;;;;;;;;;;6269308;22;20503;-61
2023/06/25 15:49:43;;;;;;;4.25;3.60;;;;;;;;;;6270249;22;20027;-61
2023/06/25 15:52:36;;;;;;;3.58;3.28;;;;;;;;;;6269503;22;20024;-61
2023/06/25 15:55:24;;;;;;;5.80;3.05;;;;;;;;;;6270626;22;20069;-61
2023/06/25 15:58:17;;;;;;;4.10;3.22;;;;;;;;;;6269390;22;20023;-60
2023/06/25 16:01:04;;;;;;;3.80;3.42;;;;;;;;;;6268457;22;20031;-59
2023/06/25 16:03:58;;;;;;;6.03;3.53;;;;;;;;;;6268453;22;20051;-59
2023/06/25 16:06:52;;;;;;;9.85;3.70;;;;;;;;;;6268696;22;20023;-59
2023/06/25 16:09:46;;;;;;;5.10;3.35;;;;;;;;;;6269146;22;20039;-59
2023/06/25 16:12:33;;;;;;;5.88;3.10;;;;;;;;;;6268921;22;20047;-60
2023/06/25 16:15:34;;;;;;;3.88;3.00;;;;;;;;;;6269685;22;20020;-59
2023/06/25 16:18:21;;;;;;;4.68;3.30;;;;;;;;;;6268436;22;20100;-59
2023/06/25 16:21:25;;;;;;;4.43;2.85;;;;;;;;;;6267781;22;20057;-58
2023/06/25 16:24:12;;;;;;;5.18;3.17;;;;;;;;;;6269261;22;20020;-59
2023/06/25 16:27:06;;;;;;;3.72;2.85;;;;;;;;;;6268620;22;20409;-59
2023/06/25 16:29:53;;;;;;;4.35;2.92;;;;;;;;;;6268360;22;20465;-59
2023/06/25 16:32:47;;;;;;;3.10;2.70;;;;;;;;;;6268819;22;20020;-60
2023/06/25 16:35:14;;;;;;;3.53;2.63;;;;;;;;;;6270618;22;20059;-60
2023/06/25 16:38:08;;;;;;;8.43;3.05;;;;;;;;;;6269755;22;20020;-60
2023/06/25 16:40:56;;;;;;;7.13;3.10;;;;;;;;;;6269278;22;20077;-60
2023/06/25 16:43:49;;;;;;;2.80;2.55;;;;;;;;;;6270370;22;20020;-60
2023/06/25 16:46:36;;;;;;;3.00;2.67;;;;;;;;;;6269336;22;20028;-59
2023/06/25 16:49:30;;;;;;;3.97;2.58;;;;;;;;;;6267284;22;20027;-59
2023/06/25 16:52:24;;;;;;;2.80;2.50;;;;;;;;;;6268476;22;20069;-60
2023/06/25 16:55:11;;;;;;;6.10;2.60;;;;;;;;;;6269155;22;20086;-59